createdAt,value
2019-05-17T00:00:17.317Z,0.00
2019-05-17T00:01:17.290Z,0.00
2019-05-17T00:02:17.606Z,0.00
2019-05-17T00:03:17.271Z,0.00
2019-05-17T00:04:17.250Z,0.00
2019-05-17T00:05:18.072Z,0.00
2019-05-17T00:06:17.222Z,0.00
2019-05-17T00:07:17.211Z,0.00
2019-05-17T00:08:29.769Z,0.00
2019-05-17T00:09:18.188Z,0.00
2019-05-17T00:10:17.552Z,0.00
2019-05-17T00:11:17.166Z,0.00
2019-05-17T00:12:17.156Z,0.00
2019-05-17T00:13:17.477Z,0.00
2019-05-17T00:14:17.133Z,0.00
2019-05-17T00:15:17.271Z,0.00
2019-05-17T00:16:17.563Z,0.00
2019-05-17T00:17:17.494Z,0.00
2019-05-17T00:18:17.349Z,0.00
2019-05-17T00:19:17.149Z,0.00
2019-05-17T00:20:17.620Z,0.00
2019-05-17T00:21:17.152Z,0.00
2019-05-17T00:22:17.040Z,0.00
2019-05-17T00:23:17.485Z,0.00
2019-05-17T00:24:18.341Z,0.00
2019-05-17T00:25:17.028Z,0.00
2019-05-17T00:26:16.998Z,0.00
2019-05-17T00:27:17.332Z,0.00
2019-05-17T00:28:16.982Z,0.00
2019-05-17T00:29:17.360Z,0.00
2019-05-17T00:30:17.709Z,0.00
2019-05-17T00:31:17.302Z,0.00
2019-05-17T00:32:17.248Z,0.00
2019-05-17T00:33:17.135Z,0.00
2019-05-17T00:34:16.979Z,0.00
2019-05-17T00:35:17.791Z,0.00
2019-05-17T00:36:17.823Z,0.00
2019-05-17T00:37:17.446Z,0.00
2019-05-17T00:38:17.065Z,0.00
2019-05-17T00:39:16.936Z,0.00
2019-05-17T00:40:16.941Z,0.00
2019-05-17T00:41:17.645Z,0.00
2019-05-17T00:42:17.154Z,0.00
2019-05-17T00:43:17.089Z,0.00
2019-05-17T00:44:16.987Z,0.00
2019-05-17T00:45:17.534Z,0.00
2019-05-17T00:46:17.331Z,0.00
2019-05-17T00:47:17.224Z,0.00
2019-05-17T00:48:17.291Z,0.00
2019-05-17T00:49:17.239Z,0.00
2019-05-17T00:50:17.209Z,0.00
2019-05-17T00:51:16.845Z,0.00
2019-05-17T00:52:16.884Z,0.00
2019-05-17T00:53:16.686Z,0.00
2019-05-17T00:54:17.401Z,0.00
2019-05-17T00:55:17.553Z,0.00
2019-05-17T00:56:17.156Z,0.00
2019-05-17T00:57:16.774Z,0.00
2019-05-17T00:58:17.459Z,0.00
2019-05-17T00:59:17.212Z,0.00
2019-05-17T01:00:17.159Z,0.00
2019-05-17T01:01:16.594Z,0.00
2019-05-17T01:02:16.591Z,0.00
2019-05-17T01:03:16.570Z,0.00
2019-05-17T01:04:17.290Z,0.00
2019-05-17T01:05:17.272Z,0.00
2019-05-17T01:06:17.032Z,0.00
2019-05-17T01:07:17.738Z,0.00
2019-05-17T01:08:17.471Z,0.00
2019-05-17T01:09:23.097Z,0.00
2019-05-17T01:10:16.721Z,0.00
2019-05-17T01:11:16.615Z,0.00
2019-05-17T01:12:16.560Z,0.00
2019-05-17T01:13:17.261Z,0.00
2019-05-17T01:14:17.566Z,0.00
2019-05-17T01:15:16.816Z,0.00
2019-05-17T01:16:16.682Z,0.00
2019-05-17T01:17:16.665Z,0.00
2019-05-17T01:18:16.415Z,0.00
2019-05-17T01:19:16.577Z,0.00
2019-05-17T01:20:17.426Z,0.00
2019-05-17T01:21:16.911Z,0.00
2019-05-17T01:22:16.878Z,0.00
2019-05-17T01:23:16.691Z,0.00
2019-05-17T01:24:17.268Z,0.00
2019-05-17T01:25:17.067Z,0.00
2019-05-17T01:26:18.257Z,0.00
2019-05-17T01:27:17.207Z,0.00
2019-05-17T01:28:16.480Z,0.00
2019-05-17T01:29:17.464Z,0.00
2019-05-17T01:30:17.489Z,0.00
2019-05-17T01:31:17.246Z,0.00
2019-05-17T01:32:17.225Z,0.00
2019-05-17T01:33:17.095Z,0.00
2019-05-17T01:34:16.735Z,0.00
2019-05-17T01:35:16.733Z,0.00
2019-05-17T01:36:17.311Z,0.00
2019-05-17T01:37:17.159Z,0.00
2019-05-17T01:38:17.786Z,0.00
2019-05-17T01:39:21.039Z,0.00
2019-05-17T01:40:17.775Z,0.00
2019-05-17T01:41:17.403Z,0.00
2019-05-17T01:42:17.255Z,0.00
2019-05-17T01:43:16.661Z,0.00
2019-05-17T01:44:16.685Z,0.00
2019-05-17T01:45:16.728Z,0.00
2019-05-17T01:46:17.199Z,0.00
2019-05-17T01:47:16.620Z,0.00
2019-05-17T01:48:16.417Z,0.00
2019-05-17T01:49:16.547Z,0.00
2019-05-17T01:50:17.539Z,0.00
2019-05-17T01:51:16.914Z,0.00
2019-05-17T01:52:16.771Z,0.00
2019-05-17T01:53:16.579Z,0.00
2019-05-17T01:54:17.535Z,0.00
2019-05-17T01:55:17.374Z,0.00
2019-05-17T01:56:16.956Z,0.00
2019-05-17T01:57:16.857Z,0.00
2019-05-17T01:58:16.415Z,0.00
2019-05-17T01:59:17.320Z,0.00
2019-05-17T02:00:17.619Z,0.00
2019-05-17T02:01:17.021Z,0.00
2019-05-17T02:02:16.382Z,0.00
2019-05-17T02:03:17.305Z,0.00
2019-05-17T02:04:17.355Z,0.00
2019-05-17T02:05:17.301Z,0.00
2019-05-17T02:06:16.545Z,0.00
2019-05-17T02:07:17.307Z,0.00
2019-05-17T02:08:17.072Z,0.00
2019-05-17T02:09:32.265Z,0.00
2019-05-17T02:10:17.011Z,0.00
2019-05-17T02:11:18.375Z,0.00
2019-05-17T02:12:17.322Z,0.00
2019-05-17T02:13:16.484Z,0.00
2019-05-17T02:14:16.544Z,0.00
2019-05-17T02:15:16.476Z,0.00
2019-05-17T02:16:16.564Z,0.00
2019-05-17T02:17:17.457Z,0.00
2019-05-17T02:18:17.378Z,0.00
2019-05-17T02:19:17.446Z,0.00
2019-05-17T02:20:17.008Z,0.00
2019-05-17T02:21:16.804Z,0.00
2019-05-17T02:22:16.740Z,0.00
2019-05-17T02:23:17.423Z,0.00
2019-05-17T02:24:16.908Z,0.00
2019-05-17T02:25:16.718Z,0.00
2019-05-17T02:26:17.375Z,0.00
2019-05-17T02:27:15.618Z,0.00
2019-05-17T02:28:15.604Z,0.00
2019-05-17T02:29:15.592Z,0.00
2019-05-17T02:30:15.597Z,0.00
2019-05-17T02:31:15.574Z,0.00
2019-05-17T02:32:15.559Z,0.00
2019-05-17T02:33:15.550Z,0.00
2019-05-17T02:34:15.537Z,0.00
2019-05-17T02:35:15.548Z,0.00
2019-05-17T02:36:15.520Z,0.00
2019-05-17T02:37:15.506Z,0.00
2019-05-17T02:38:15.494Z,0.00
2019-05-17T02:39:15.483Z,0.00
2019-05-17T02:40:15.671Z,0.00
2019-05-17T02:41:15.460Z,0.00
2019-05-17T02:42:15.444Z,0.00
2019-05-17T02:43:15.434Z,0.00
2019-05-17T02:44:15.423Z,0.00
2019-05-17T02:45:15.432Z,0.00
2019-05-17T02:46:15.419Z,0.00
2019-05-17T02:47:15.401Z,0.00
2019-05-17T02:48:15.374Z,0.00
2019-05-17T02:49:15.367Z,0.00
2019-05-17T02:50:15.380Z,0.00
2019-05-17T02:51:15.349Z,0.00
2019-05-17T02:52:15.333Z,0.00
2019-05-17T02:53:15.329Z,0.00
2019-05-17T02:54:15.311Z,0.00
2019-05-17T02:55:15.316Z,0.00
2019-05-17T02:56:15.287Z,0.00
2019-05-17T02:57:15.290Z,0.00
2019-05-17T02:58:15.265Z,0.00
2019-05-17T02:59:15.251Z,0.00
2019-05-17T03:00:15.261Z,0.00
2019-05-17T03:01:15.240Z,0.00
2019-05-17T03:02:15.221Z,0.00
2019-05-17T03:03:15.206Z,0.00
2019-05-17T03:04:15.198Z,0.00
2019-05-17T03:05:15.201Z,0.00
2019-05-17T03:06:15.172Z,0.00
2019-05-17T03:07:15.164Z,0.00
2019-05-17T03:08:15.149Z,0.00
2019-05-17T03:09:15.138Z,0.00
2019-05-17T03:10:24.001Z,0.00
2019-05-17T03:11:16.113Z,0.00
2019-05-17T03:12:15.103Z,0.00
2019-05-17T03:13:17.861Z,0.00
2019-05-17T03:14:15.083Z,0.00
2019-05-17T03:15:15.085Z,0.00
2019-05-17T03:16:15.126Z,0.00
2019-05-17T03:17:15.048Z,0.00
2019-05-17T03:18:15.039Z,0.00
2019-05-17T03:19:15.023Z,0.00
2019-05-17T03:20:15.031Z,0.00
2019-05-17T03:21:15.008Z,0.00
2019-05-17T03:22:14.991Z,0.00
2019-05-17T03:23:14.978Z,0.00
2019-05-17T03:24:14.967Z,0.00
2019-05-17T03:25:14.973Z,0.00
2019-05-17T03:26:14.946Z,0.00
2019-05-17T03:27:14.938Z,0.00
2019-05-17T03:28:14.922Z,0.00
2019-05-17T03:29:14.912Z,0.00
2019-05-17T03:30:18.354Z,0.00
2019-05-17T03:31:16.531Z,0.00
2019-05-17T03:32:17.381Z,0.00
2019-05-17T03:33:16.471Z,0.00
2019-05-17T03:34:17.335Z,0.00
2019-05-17T03:35:17.441Z,0.00
2019-05-17T03:36:16.938Z,0.00
2019-05-17T03:37:15.929Z,0.00
2019-05-17T03:38:14.817Z,0.00
2019-05-17T03:39:14.795Z,0.00
2019-05-17T03:40:30.619Z,0.00
2019-05-17T03:41:23.432Z,0.00
2019-05-17T03:42:15.759Z,0.00
2019-05-17T03:43:14.750Z,0.00
2019-05-17T03:44:14.769Z,0.00
2019-05-17T03:45:14.742Z,0.00
2019-05-17T03:46:14.714Z,0.00
2019-05-17T03:47:14.710Z,0.00
2019-05-17T03:48:14.704Z,0.00
2019-05-17T03:49:14.687Z,0.00
2019-05-17T03:50:14.719Z,5.62
2019-05-17T03:51:14.656Z,5.62
2019-05-17T03:52:14.659Z,5.62
2019-05-17T03:53:14.634Z,5.62
2019-05-17T03:54:14.625Z,5.62
2019-05-17T03:55:14.630Z,5.62
2019-05-17T03:56:14.605Z,5.62
2019-05-17T03:57:14.594Z,5.62
2019-05-17T03:58:14.584Z,5.62
2019-05-17T03:59:14.566Z,5.62
2019-05-17T04:00:14.572Z,5.62
2019-05-17T04:01:14.543Z,5.62
2019-05-17T04:02:14.532Z,5.62
2019-05-17T04:03:14.543Z,5.62
2019-05-17T04:04:14.519Z,5.62
2019-05-17T04:05:14.546Z,5.62
2019-05-17T04:06:14.526Z,5.62
2019-05-17T04:07:14.486Z,5.62
2019-05-17T04:08:14.482Z,5.62
2019-05-17T04:09:14.453Z,5.62
2019-05-17T04:10:15.345Z,5.62
2019-05-17T04:11:25.804Z,5.62
2019-05-17T04:12:15.419Z,5.62
2019-05-17T04:13:14.411Z,5.62
2019-05-17T04:14:14.413Z,5.62
2019-05-17T04:15:14.413Z,5.62
2019-05-17T04:16:14.508Z,5.62
2019-05-17T04:17:14.359Z,5.62
2019-05-17T04:18:14.349Z,5.62
2019-05-17T04:19:14.335Z,5.62
2019-05-17T04:20:14.463Z,5.62
2019-05-17T04:21:14.319Z,5.62
2019-05-17T04:22:14.305Z,5.62
2019-05-17T04:23:14.294Z,5.62
2019-05-17T04:24:14.278Z,5.62
2019-05-17T04:25:14.481Z,5.62
2019-05-17T04:26:14.256Z,5.62
2019-05-17T04:27:14.244Z,5.62
2019-05-17T04:28:14.233Z,11.25
2019-05-17T04:29:14.221Z,11.25
2019-05-17T04:30:14.226Z,11.25
2019-05-17T04:31:14.202Z,11.25
2019-05-17T04:32:14.187Z,11.25
2019-05-17T04:33:14.177Z,11.25
2019-05-17T04:34:14.168Z,11.25
2019-05-17T04:35:14.174Z,11.25
2019-05-17T04:36:14.146Z,11.25
2019-05-17T04:37:14.130Z,11.25
2019-05-17T04:38:14.117Z,11.25
2019-05-17T04:39:14.107Z,11.25
2019-05-17T04:40:14.817Z,16.88
2019-05-17T04:41:14.083Z,16.88
2019-05-17T04:42:14.071Z,11.25
2019-05-17T04:43:14.061Z,16.88
2019-05-17T04:44:14.051Z,16.88
2019-05-17T04:45:14.057Z,16.88
2019-05-17T04:46:14.025Z,16.88
2019-05-17T04:47:14.015Z,16.88
2019-05-17T04:48:14.002Z,16.88
2019-05-17T04:49:14.170Z,16.88
2019-05-17T04:50:14.366Z,16.88
2019-05-17T04:51:13.968Z,16.88
2019-05-17T04:52:14.105Z,16.88
2019-05-17T04:53:13.953Z,22.50
2019-05-17T04:54:14.205Z,22.50
2019-05-17T04:55:14.176Z,22.50
2019-05-17T04:56:14.382Z,22.50
2019-05-17T04:57:13.904Z,22.50
2019-05-17T04:58:13.959Z,22.50
2019-05-17T04:59:14.230Z,22.50
2019-05-17T05:00:13.936Z,22.50
2019-05-17T05:01:13.866Z,22.50
2019-05-17T05:02:13.844Z,22.50
2019-05-17T05:03:13.831Z,22.50
2019-05-17T05:04:15.526Z,22.50
2019-05-17T05:05:14.251Z,22.50
2019-05-17T05:06:13.824Z,22.50
2019-05-17T05:07:14.027Z,22.50
2019-05-17T05:08:13.771Z,22.50
2019-05-17T05:09:13.770Z,28.12
2019-05-17T05:10:14.395Z,28.12
2019-05-17T05:11:13.737Z,28.12
2019-05-17T05:12:13.737Z,28.12
2019-05-17T05:13:13.717Z,28.12
2019-05-17T05:14:13.703Z,28.12
2019-05-17T05:15:13.713Z,28.12
2019-05-17T05:16:13.756Z,28.12
2019-05-17T05:17:13.670Z,28.12
2019-05-17T05:18:13.967Z,28.12
2019-05-17T05:19:13.649Z,28.12
2019-05-17T05:20:13.781Z,28.12
2019-05-17T05:21:13.625Z,28.12
2019-05-17T05:22:17.407Z,28.12
2019-05-17T05:23:13.715Z,28.12
2019-05-17T05:24:13.591Z,28.12
2019-05-17T05:25:13.596Z,28.12
2019-05-17T05:26:13.565Z,28.12
2019-05-17T05:27:13.555Z,28.12
2019-05-17T05:28:13.548Z,28.12
2019-05-17T05:29:13.550Z,28.12
2019-05-17T05:30:13.542Z,28.12
2019-05-17T05:31:13.510Z,28.12
2019-05-17T05:32:13.497Z,28.12
2019-05-17T05:33:13.488Z,28.12
2019-05-17T05:34:13.475Z,28.12
2019-05-17T05:35:13.481Z,28.12
2019-05-17T05:36:13.453Z,28.12
2019-05-17T05:37:13.445Z,33.75
2019-05-17T05:38:13.500Z,33.75
2019-05-17T05:39:13.419Z,33.75
2019-05-17T05:40:13.424Z,33.75
2019-05-17T05:41:13.396Z,33.75
2019-05-17T05:42:14.081Z,33.75
2019-05-17T05:43:13.372Z,33.75
2019-05-17T05:44:13.362Z,33.75
2019-05-17T05:45:13.351Z,33.75
2019-05-17T05:46:13.339Z,39.38
2019-05-17T05:47:13.331Z,39.38
2019-05-17T05:48:13.333Z,39.38
2019-05-17T05:49:13.301Z,39.38
2019-05-17T05:50:13.293Z,39.38
2019-05-17T05:51:13.808Z,39.38
2019-05-17T05:52:13.275Z,39.38
2019-05-17T05:53:13.415Z,39.38
2019-05-17T05:54:13.253Z,39.38
2019-05-17T05:55:13.237Z,39.38
2019-05-17T05:56:13.554Z,39.38
2019-05-17T05:57:13.219Z,39.38
2019-05-17T05:58:13.202Z,39.38
2019-05-17T05:59:13.221Z,39.38
2019-05-17T06:00:13.240Z,39.38
2019-05-17T06:01:13.171Z,39.38
2019-05-17T06:02:13.167Z,39.38
2019-05-17T06:03:13.148Z,39.38
2019-05-17T06:04:13.161Z,45.00
2019-05-17T06:05:17.098Z,45.00
2019-05-17T06:06:13.112Z,45.00
2019-05-17T06:07:13.102Z,45.00
2019-05-17T06:08:13.090Z,45.00
2019-05-17T06:09:13.085Z,45.00
2019-05-17T06:10:13.377Z,45.00
2019-05-17T06:11:13.058Z,45.00
2019-05-17T06:12:22.906Z,45.00
2019-05-17T06:13:14.032Z,45.00
2019-05-17T06:14:13.024Z,45.00
2019-05-17T06:15:13.035Z,45.00
2019-05-17T06:16:12.997Z,45.00
2019-05-17T06:17:12.987Z,50.62
2019-05-17T06:18:12.978Z,50.62
2019-05-17T06:19:12.964Z,50.62
2019-05-17T06:20:12.958Z,50.62
2019-05-17T06:21:12.958Z,56.25
2019-05-17T06:22:12.932Z,56.25
2019-05-17T06:23:12.923Z,56.25
2019-05-17T06:24:12.906Z,61.88
2019-05-17T06:25:15.530Z,61.88
2019-05-17T06:26:12.911Z,61.88
2019-05-17T06:27:12.879Z,67.50
2019-05-17T06:28:12.873Z,67.50
2019-05-17T06:29:12.852Z,67.50
2019-05-17T06:30:12.965Z,67.50
2019-05-17T06:31:15.022Z,67.50
2019-05-17T06:32:12.836Z,67.50
2019-05-17T06:33:26.761Z,67.50
2019-05-17T06:34:13.794Z,67.50
2019-05-17T06:35:13.051Z,67.50
2019-05-17T06:36:13.658Z,67.50
2019-05-17T06:37:14.903Z,67.50
2019-05-17T06:38:12.750Z,73.12
2019-05-17T06:39:12.736Z,73.12
2019-05-17T06:40:13.478Z,73.12
2019-05-17T06:41:12.838Z,73.12
2019-05-17T06:42:12.713Z,73.12
2019-05-17T06:43:13.309Z,78.75
2019-05-17T06:44:12.693Z,78.75
2019-05-17T06:45:12.831Z,78.75
2019-05-17T06:46:12.656Z,78.75
2019-05-17T06:47:12.651Z,78.75
2019-05-17T06:48:12.671Z,78.75
2019-05-17T06:49:12.628Z,78.75
2019-05-17T06:50:14.369Z,78.75
2019-05-17T06:51:12.599Z,78.75
2019-05-17T06:52:12.589Z,84.38
2019-05-17T06:53:12.720Z,84.38
2019-05-17T06:54:12.582Z,84.38
2019-05-17T06:55:12.976Z,84.38
2019-05-17T06:56:12.925Z,84.38
2019-05-17T06:57:12.945Z,84.38
2019-05-17T06:58:12.530Z,84.38
2019-05-17T06:59:12.541Z,84.38
2019-05-17T07:00:19.503Z,84.38
2019-05-17T07:01:13.487Z,84.38
2019-05-17T07:02:12.477Z,84.38
2019-05-17T07:03:12.470Z,84.38
2019-05-17T07:04:12.459Z,84.38
2019-05-17T07:05:12.464Z,84.38
2019-05-17T07:06:12.457Z,84.38
2019-05-17T07:07:12.434Z,84.38
2019-05-17T07:08:12.410Z,84.38
2019-05-17T07:09:12.409Z,78.75
2019-05-17T07:10:12.416Z,78.75
2019-05-17T07:11:12.379Z,78.75
2019-05-17T07:12:12.363Z,78.75
2019-05-17T07:13:12.353Z,84.38
2019-05-17T07:14:12.344Z,84.38
2019-05-17T07:15:12.334Z,84.38
2019-05-17T07:16:12.337Z,78.75
2019-05-17T07:17:12.315Z,78.75
2019-05-17T07:18:12.296Z,78.75
2019-05-17T07:19:12.288Z,78.75
2019-05-17T07:20:12.280Z,78.75
2019-05-17T07:21:12.299Z,84.38
2019-05-17T07:22:12.263Z,84.38
2019-05-17T07:23:12.250Z,84.38
2019-05-17T07:24:12.230Z,78.75
2019-05-17T07:25:12.223Z,78.75
2019-05-17T07:26:12.244Z,78.75
2019-05-17T07:27:12.213Z,84.38
2019-05-17T07:28:12.188Z,78.75
2019-05-17T07:29:12.173Z,84.38
2019-05-17T07:30:12.164Z,84.38
2019-05-17T07:31:12.151Z,78.75
2019-05-17T07:32:12.172Z,84.38
2019-05-17T07:33:12.127Z,90.00
2019-05-17T07:34:12.116Z,90.00
2019-05-17T07:35:12.104Z,90.00
2019-05-17T07:36:12.094Z,90.00
2019-05-17T07:37:12.082Z,90.00
2019-05-17T07:38:12.087Z,90.00
2019-05-17T07:39:12.059Z,95.62
2019-05-17T07:40:12.054Z,95.62
2019-05-17T07:41:12.041Z,95.62
2019-05-17T07:42:12.029Z,95.62
2019-05-17T07:43:14.823Z,95.62
2019-05-17T07:44:12.011Z,90.00
2019-05-17T07:45:11.993Z,90.00
2019-05-17T07:46:11.985Z,90.00
2019-05-17T07:47:11.973Z,90.00
2019-05-17T07:48:11.957Z,90.00
2019-05-17T07:49:11.961Z,90.00
2019-05-17T07:50:11.934Z,90.00
2019-05-17T07:51:11.922Z,90.00
2019-05-17T07:52:11.911Z,95.62
2019-05-17T07:53:11.902Z,95.62
2019-05-17T07:54:11.918Z,101.25
2019-05-17T07:55:11.877Z,101.25
2019-05-17T07:56:11.865Z,106.88
2019-05-17T07:57:11.860Z,112.50
2019-05-17T07:58:11.843Z,112.50
2019-05-17T07:59:11.835Z,106.88
2019-05-17T08:00:11.845Z,106.88
2019-05-17T08:01:11.813Z,106.88
2019-05-17T08:02:11.798Z,106.88
2019-05-17T08:03:13.182Z,106.88
2019-05-17T08:04:11.774Z,106.88
2019-05-17T08:05:11.798Z,106.88
2019-05-17T08:06:11.750Z,106.88
2019-05-17T08:07:11.739Z,106.88
2019-05-17T08:08:11.727Z,106.88
2019-05-17T08:09:13.827Z,106.88
2019-05-17T08:10:11.704Z,106.88
2019-05-17T08:11:11.713Z,112.50
2019-05-17T08:12:11.690Z,112.50
2019-05-17T08:13:25.514Z,112.50
2019-05-17T08:14:26.488Z,118.12
2019-05-17T08:15:11.658Z,123.75
2019-05-17T08:16:11.651Z,123.75
2019-05-17T08:17:11.624Z,129.38
2019-05-17T08:18:11.622Z,129.38
2019-05-17T08:19:11.602Z,135.00
2019-05-17T08:20:11.590Z,140.62
2019-05-17T08:21:11.594Z,146.25
2019-05-17T08:22:11.567Z,151.88
2019-05-17T08:23:11.563Z,151.88
2019-05-17T08:24:11.547Z,157.50
2019-05-17T08:25:11.547Z,151.88
2019-05-17T08:26:11.520Z,151.88
2019-05-17T08:27:11.509Z,157.50
2019-05-17T08:28:11.496Z,168.75
2019-05-17T08:29:11.491Z,180.00
2019-05-17T08:30:11.647Z,185.62
2019-05-17T08:31:11.466Z,202.50
2019-05-17T08:32:11.449Z,219.38
2019-05-17T08:33:11.447Z,230.62
2019-05-17T08:34:11.434Z,225.00
2019-05-17T08:35:11.619Z,230.62
2019-05-17T08:36:11.407Z,213.75
2019-05-17T08:37:11.394Z,202.50
2019-05-17T08:38:11.389Z,202.50
2019-05-17T08:39:11.372Z,191.25
2019-05-17T08:40:14.894Z,208.12
2019-05-17T08:41:11.351Z,225.00
2019-05-17T08:42:11.336Z,236.25
2019-05-17T08:43:11.325Z,236.25
2019-05-17T08:44:11.312Z,241.88
2019-05-17T08:45:11.322Z,275.62
2019-05-17T08:46:11.291Z,298.12
2019-05-17T08:47:11.278Z,303.75
2019-05-17T08:48:11.269Z,466.88
2019-05-17T08:49:11.261Z,371.25
2019-05-17T08:50:11.718Z,320.62
2019-05-17T08:51:11.238Z,545.62
2019-05-17T08:52:11.227Z,545.62
2019-05-17T08:53:11.211Z,556.88
2019-05-17T08:54:11.200Z,573.75
2019-05-17T08:55:11.206Z,556.88
2019-05-17T08:56:11.180Z,545.62
2019-05-17T08:57:11.175Z,399.38
2019-05-17T08:58:11.155Z,388.12
2019-05-17T08:59:11.143Z,371.25
2019-05-17T09:00:11.150Z,360.00
2019-05-17T09:01:11.396Z,320.62
2019-05-17T09:02:11.109Z,315.00
2019-05-17T09:03:11.100Z,281.25
2019-05-17T09:04:11.087Z,236.25
2019-05-17T09:05:11.092Z,219.38
2019-05-17T09:06:12.502Z,208.12
2019-05-17T09:07:11.053Z,196.88
2019-05-17T09:08:11.041Z,185.62
2019-05-17T09:09:11.030Z,185.62
2019-05-17T09:10:11.036Z,180.00
2019-05-17T09:11:11.015Z,180.00
2019-05-17T09:12:11.186Z,174.38
2019-05-17T09:13:14.556Z,168.75
2019-05-17T09:14:10.976Z,163.12
2019-05-17T09:15:10.982Z,157.50
2019-05-17T09:16:11.000Z,157.50
2019-05-17T09:17:10.940Z,157.50
2019-05-17T09:18:10.929Z,157.50
2019-05-17T09:19:10.916Z,163.12
2019-05-17T09:20:11.198Z,163.12
2019-05-17T09:21:10.895Z,168.75
2019-05-17T09:22:10.883Z,163.12
2019-05-17T09:23:10.871Z,163.12
2019-05-17T09:24:10.865Z,163.12
2019-05-17T09:25:15.799Z,174.38
2019-05-17T09:26:11.837Z,196.88
2019-05-17T09:27:10.827Z,275.62
2019-05-17T09:28:10.817Z,410.62
2019-05-17T09:29:10.942Z,320.62
2019-05-17T09:30:10.806Z,258.75
2019-05-17T09:31:10.780Z,225.00
2019-05-17T09:32:10.773Z,208.12
2019-05-17T09:33:11.472Z,202.50
2019-05-17T09:34:10.745Z,208.12
2019-05-17T09:35:10.751Z,225.00
2019-05-17T09:36:10.725Z,253.12
2019-05-17T09:37:10.713Z,320.62
2019-05-17T09:38:10.750Z,416.25
2019-05-17T09:39:10.702Z,388.12
2019-05-17T09:40:10.700Z,371.25
2019-05-17T09:41:10.666Z,360.00
2019-05-17T09:42:10.655Z,348.75
2019-05-17T09:43:10.645Z,354.38
2019-05-17T09:44:15.895Z,309.38
2019-05-17T09:45:11.640Z,303.75
2019-05-17T09:46:10.896Z,258.75
2019-05-17T09:47:10.605Z,253.12
2019-05-17T09:48:10.756Z,275.62
2019-05-17T09:49:10.653Z,365.62
2019-05-17T09:50:10.602Z,253.12
2019-05-17T09:51:10.694Z,213.75
2019-05-17T09:52:10.548Z,191.25
2019-05-17T09:53:11.023Z,185.62
2019-05-17T09:54:10.523Z,168.75
2019-05-17T09:55:10.516Z,157.50
2019-05-17T09:56:10.523Z,151.88
2019-05-17T09:57:10.491Z,157.50
2019-05-17T09:58:10.480Z,151.88
2019-05-17T09:59:10.466Z,140.62
2019-05-17T10:00:10.458Z,140.62
2019-05-17T10:01:10.471Z,135.00
2019-05-17T10:02:10.433Z,135.00
2019-05-17T10:03:10.423Z,129.38
2019-05-17T10:04:13.485Z,118.12
2019-05-17T10:05:10.921Z,118.12
2019-05-17T10:06:10.389Z,118.12
2019-05-17T10:07:10.412Z,118.12
2019-05-17T10:08:10.989Z,123.75
2019-05-17T10:09:10.364Z,123.75
2019-05-17T10:10:10.833Z,135.00
2019-05-17T10:11:12.132Z,140.62
2019-05-17T10:12:10.352Z,163.12
2019-05-17T10:13:10.310Z,219.38
2019-05-17T10:14:18.254Z,360.00
2019-05-17T10:15:11.287Z,337.50
2019-05-17T10:16:10.281Z,309.38
2019-05-17T10:17:10.268Z,320.62
2019-05-17T10:18:10.963Z,416.25
2019-05-17T10:19:10.244Z,286.88
2019-05-17T10:20:10.893Z,253.12
2019-05-17T10:21:10.574Z,236.25
2019-05-17T10:22:10.515Z,236.25
2019-05-17T10:23:10.789Z,230.62
2019-05-17T10:24:10.188Z,236.25
2019-05-17T10:25:10.178Z,219.38
2019-05-17T10:26:10.378Z,213.75
2019-05-17T10:27:10.967Z,281.25
2019-05-17T10:28:10.328Z,270.00
2019-05-17T10:29:10.156Z,286.88
2019-05-17T10:30:10.545Z,270.00
2019-05-17T10:31:11.331Z,247.50
2019-05-17T10:32:10.563Z,292.50
2019-05-17T10:33:10.234Z,478.12
2019-05-17T10:34:10.117Z,838.12
2019-05-17T10:35:10.069Z,579.38
2019-05-17T10:36:10.057Z,562.50
2019-05-17T10:37:10.565Z,393.75
2019-05-17T10:38:10.449Z,343.12
2019-05-17T10:39:10.113Z,354.38
2019-05-17T10:40:10.519Z,337.50
2019-05-17T10:41:10.277Z,472.50
2019-05-17T10:42:10.145Z,1130.62
2019-05-17T10:43:10.392Z,2407.50
2019-05-17T10:44:09.962Z,916.88
2019-05-17T10:45:10.834Z,1333.12
2019-05-17T10:46:10.501Z,1451.25
2019-05-17T10:47:10.159Z,331.88
2019-05-17T10:48:10.414Z,303.75
2019-05-17T10:49:10.813Z,270.00
2019-05-17T10:50:10.843Z,281.25
2019-05-17T10:51:11.669Z,298.12
2019-05-17T10:52:09.877Z,292.50
2019-05-17T10:53:10.348Z,348.75
2019-05-17T10:54:09.918Z,714.38
2019-05-17T10:55:10.570Z,1186.88
2019-05-17T10:56:10.124Z,720.00
2019-05-17T10:57:10.411Z,590.62
2019-05-17T10:58:10.285Z,1158.75
2019-05-17T10:59:10.025Z,2638.12
2019-05-17T11:00:10.240Z,1344.38
2019-05-17T11:01:10.404Z,1434.38
2019-05-17T11:02:10.092Z,916.88
2019-05-17T11:03:10.137Z,2446.88
2019-05-17T11:04:10.504Z,2030.62
2019-05-17T11:05:10.570Z,1417.50
2019-05-17T11:06:11.030Z,1631.25
2019-05-17T11:07:10.471Z,838.12
2019-05-17T11:08:10.721Z,613.12
2019-05-17T11:09:10.257Z,416.25
2019-05-17T11:10:11.639Z,601.88
2019-05-17T11:11:10.227Z,421.88
2019-05-17T11:12:09.644Z,343.12
2019-05-17T11:13:09.651Z,315.00
2019-05-17T11:14:09.621Z,365.62
2019-05-17T11:15:11.375Z,511.88
2019-05-17T11:16:09.603Z,585.00
2019-05-17T11:17:09.614Z,562.50
2019-05-17T11:18:09.606Z,421.88
2019-05-17T11:19:09.565Z,562.50
2019-05-17T11:20:09.555Z,500.62
2019-05-17T11:21:09.547Z,517.50
2019-05-17T11:22:09.531Z,601.88
2019-05-17T11:23:09.520Z,472.50
2019-05-17T11:24:09.531Z,545.62
2019-05-17T11:25:09.500Z,489.38
2019-05-17T11:26:09.491Z,483.75
2019-05-17T11:27:09.475Z,478.12
2019-05-17T11:28:09.467Z,511.88
2019-05-17T11:29:09.487Z,534.38
2019-05-17T11:30:09.442Z,523.12
2019-05-17T11:31:09.431Z,534.38
2019-05-17T11:32:09.427Z,444.38
2019-05-17T11:33:09.409Z,331.88
2019-05-17T11:34:09.396Z,281.25
2019-05-17T11:35:09.402Z,196.88
2019-05-17T11:36:09.375Z,191.25
2019-05-17T11:37:09.370Z,163.12
2019-05-17T11:38:09.356Z,151.88
2019-05-17T11:39:09.350Z,140.62
2019-05-17T11:40:09.370Z,112.50
2019-05-17T11:41:20.631Z,112.50
2019-05-17T11:42:10.305Z,118.12
2019-05-17T11:43:09.297Z,129.38
2019-05-17T11:44:09.321Z,129.38
2019-05-17T11:45:09.273Z,123.75
2019-05-17T11:46:09.275Z,123.75
2019-05-17T11:47:09.249Z,135.00
2019-05-17T11:48:09.245Z,151.88
2019-05-17T11:49:09.228Z,180.00
2019-05-17T11:50:09.220Z,208.12
2019-05-17T11:51:09.233Z,202.50
2019-05-17T11:52:09.192Z,208.12
2019-05-17T11:53:09.181Z,225.00
2019-05-17T11:54:09.170Z,264.38
2019-05-17T11:55:09.159Z,270.00
2019-05-17T11:56:09.148Z,208.12
2019-05-17T11:57:12.236Z,180.00
2019-05-17T11:58:09.128Z,185.62
2019-05-17T11:59:09.110Z,185.62
2019-05-17T12:00:09.102Z,202.50
2019-05-17T12:01:09.102Z,253.12
2019-05-17T12:02:09.078Z,292.50
2019-05-17T12:03:09.092Z,320.62
2019-05-17T12:04:09.053Z,303.75
2019-05-17T12:05:09.042Z,320.62
2019-05-17T12:06:09.033Z,354.38
2019-05-17T12:07:09.023Z,309.38
2019-05-17T12:08:09.019Z,303.75
2019-05-17T12:09:09.027Z,320.62
2019-05-17T12:10:08.986Z,348.75
2019-05-17T12:11:08.974Z,354.38
2019-05-17T12:12:08.972Z,281.25
2019-05-17T12:13:08.975Z,450.00
2019-05-17T12:14:08.942Z,444.38
2019-05-17T12:15:08.948Z,438.75
2019-05-17T12:16:08.922Z,309.38
2019-05-17T12:17:08.905Z,309.38
2019-05-17T12:18:08.894Z,247.50
2019-05-17T12:19:08.883Z,236.25
2019-05-17T12:20:08.898Z,208.12
2019-05-17T12:21:08.858Z,168.75
2019-05-17T12:22:09.734Z,146.25
2019-05-17T12:23:08.838Z,129.38
2019-05-17T12:24:08.825Z,118.12
2019-05-17T12:25:08.814Z,106.88
2019-05-17T12:26:09.257Z,101.25
2019-05-17T12:27:08.789Z,90.00
2019-05-17T12:28:08.778Z,90.00
2019-05-17T12:29:08.767Z,90.00
2019-05-17T12:30:08.779Z,90.00
2019-05-17T12:31:08.774Z,84.38
2019-05-17T12:32:08.735Z,84.38
2019-05-17T12:33:08.722Z,84.38
2019-05-17T12:34:08.714Z,84.38
2019-05-17T12:35:08.710Z,78.75
2019-05-17T12:36:08.693Z,84.38
2019-05-17T12:37:08.695Z,95.62
2019-05-17T12:38:08.672Z,123.75
2019-05-17T12:39:08.653Z,140.62
2019-05-17T12:40:08.654Z,163.12
2019-05-17T12:41:08.631Z,180.00
2019-05-17T12:42:08.674Z,180.00
2019-05-17T12:43:08.608Z,202.50
2019-05-17T12:44:08.598Z,258.75
2019-05-17T12:45:08.591Z,478.12
2019-05-17T12:46:08.574Z,281.25
2019-05-17T12:47:08.569Z,241.88
2019-05-17T12:48:08.574Z,253.12
2019-05-17T12:49:08.541Z,236.25
2019-05-17T12:50:08.531Z,213.75
2019-05-17T12:51:08.517Z,174.38